sensor_id;sensor_type;location;lat;lon;timestamp;pressure;altitude;pressure_sealevel;temperature;humidity
13013;BME280;22580;57.670;12.006;2023-07-31T00:01:17;100088.66;;;26.98;62.62
13013;BME280;22580;57.670;12.006;2023-07-31T00:03:46;100095.59;;;27.00;62.74
13013;BME280;22580;57.670;12.006;2023-07-31T00:06:13;100095.22;;;26.97;63.33
13013;BME280;22580;57.670;12.006;2023-07-31T00:08:40;100099.59;;;26.86;63.59
13013;BME280;22580;57.670;12.006;2023-07-31T00:11:07;100071.22;;;26.62;63.99
13013;BME280;22580;57.670;12.006;2023-07-31T00:13:35;100082.78;;;26.94;62.58
13013;BME280;22580;57.670;12.006;2023-07-31T00:16:03;100092.25;;;27.28;61.69
13013;BME280;22580;57.670;12.006;2023-07-31T00:18:29;100077.31;;;27.24;60.96
13013;BME280;22580;57.670;12.006;2023-07-31T00:20:58;100087.00;;;27.27;61.51
13013;BME280;22580;57.670;12.006;2023-07-31T00:23:25;100079.22;;;27.24;61.85
13013;BME280;22580;57.670;12.006;2023-07-31T00:25:52;100083.63;;;26.95;62.65
13013;BME280;22580;57.670;12.006;2023-07-31T00:28:19;100085.75;;;26.93;62.85
13013;BME280;22580;57.670;12.006;2023-07-31T00:30:45;100086.81;;;26.92;62.80
13013;BME280;22580;57.670;12.006;2023-07-31T00:33:12;100085.44;;;26.71;63.87
13013;BME280;22580;57.670;12.006;2023-07-31T00:35:39;100080.19;;;26.69;63.50
13013;BME280;22580;57.670;12.006;2023-07-31T00:38:08;100073.78;;;26.75;63.40
13013;BME280;22580;57.670;12.006;2023-07-31T00:40:35;100080.84;;;26.83;63.58
13013;BME280;22580;57.670;12.006;2023-07-31T00:43:03;100084.09;;;26.92;63.09
13013;BME280;22580;57.670;12.006;2023-07-31T00:45:31;100067.94;;;26.54;63.41
13013;BME280;22580;57.670;12.006;2023-07-31T00:47:58;100040.16;;;26.32;63.77
13013;BME280;22580;57.670;12.006;2023-07-31T00:50:26;100073.34;;;26.60;64.13
13013;BME280;22580;57.670;12.006;2023-07-31T00:52:55;100072.97;;;26.38;65.31
13013;BME280;22580;57.670;12.006;2023-07-31T00:55:23;100073.09;;;26.62;64.47
13013;BME280;22580;57.670;12.006;2023-07-31T00:57:50;100070.06;;;26.33;65.10
13013;BME280;22580;57.670;12.006;2023-07-31T01:00:18;100054.84;;;26.37;64.83
13013;BME280;22580;57.670;12.006;2023-07-31T01:02:45;100076.53;;;26.57;64.25
13013;BME280;22580;57.670;12.006;2023-07-31T01:05:12;100073.25;;;26.67;63.72
13013;BME280;22580;57.670;12.006;2023-07-31T01:07:45;100077.28;;;26.64;63.71
13013;BME280;22580;57.670;12.006;2023-07-31T01:10:19;100074.63;;;26.76;63.26
13013;BME280;22580;57.670;12.006;2023-07-31T01:12:49;100073.31;;;26.78;63.45
13013;BME280;22580;57.670;12.006;2023-07-31T01:15:17;100070.44;;;26.73;63.61
13013;BME280;22580;57.670;12.006;2023-07-31T01:17:44;100054.84;;;26.56;63.66
13013;BME280;22580;57.670;12.006;2023-07-31T01:20:14;100067.84;;;26.60;63.67
13013;BME280;22580;57.670;12.006;2023-07-31T01:23:04;100064.13;;;26.55;63.70
13013;BME280;22580;57.670;12.006;2023-07-31T01:25:48;100050.97;;;26.45;63.39
13013;BME280;22580;57.670;12.006;2023-07-31T01:28:19;100044.56;;;26.33;63.97
13013;BME280;22580;57.670;12.006;2023-07-31T01:30:48;100057.50;;;26.44;63.96
13013;BME280;22580;57.670;12.006;2023-07-31T01:33:16;100057.34;;;26.39;64.16
13013;BME280;22580;57.670;12.006;2023-07-31T01:35:44;100046.28;;;26.27;64.29
13013;BME280;22580;57.670;12.006;2023-07-31T01:38:11;100055.53;;;26.33;64.61
13013;BME280;22580;57.670;12.006;2023-07-31T01:40:41;100042.66;;;26.33;64.22
13013;BME280;22580;57.670;12.006;2023-07-31T01:43:10;100045.44;;;26.27;64.99
13013;BME280;22580;57.670;12.006;2023-07-31T01:45:37;100041.22;;;26.49;64.20
13013;BME280;22580;57.670;12.006;2023-07-31T01:48:04;100043.28;;;26.35;64.33
13013;BME280;22580;57.670;12.006;2023-07-31T01:50:31;100042.72;;;26.27;64.57
13013;BME280;22580;57.670;12.006;2023-07-31T01:52:58;100043.66;;;26.39;64.48
13013;BME280;22580;57.670;12.006;2023-07-31T01:55:25;100038.22;;;26.14;65.19
13013;BME280;22580;57.670;12.006;2023-07-31T01:57:52;100042.84;;;26.13;65.46
13013;BME280;22580;57.670;12.006;2023-07-31T02:00:20;100024.53;;;26.14;65.79
13013;BME280;22580;57.670;12.006;2023-07-31T02:02:47;100037.78;;;26.35;64.95
13013;BME280;22580;57.670;12.006;2023-07-31T02:05:14;100002.53;;;26.21;65.03
13013;BME280;22580;57.670;12.006;2023-07-31T02:07:41;100002.91;;;26.24;65.04
13013;BME280;22580;57.670;12.006;2023-07-31T02:10:09;100024.78;;;26.49;64.83
13013;BME280;22580;57.670;12.006;2023-07-31T02:12:36;100021.53;;;26.70;63.91
13013;BME280;22580;57.670;12.006;2023-07-31T02:15:04;100024.84;;;26.42;64.60
13013;BME280;22580;57.670;12.006;2023-07-31T02:17:32;100028.59;;;26.48;64.42
13013;BME280;22580;57.670;12.006;2023-07-31T02:19:59;99996.13;;;26.08;65.54
13013;BME280;22580;57.670;12.006;2023-07-31T02:22:26;100010.66;;;26.27;65.88
13013;BME280;22580;57.670;12.006;2023-07-31T02:24:53;100011.81;;;26.20;65.61
13013;BME280;22580;57.670;12.006;2023-07-31T02:27:20;100005.72;;;26.18;66.01
13013;BME280;22580;57.670;12.006;2023-07-31T02:29:49;100013.94;;;26.18;65.73
13013;BME280;22580;57.670;12.006;2023-07-31T02:32:16;100014.78;;;26.18;66.07
13013;BME280;22580;57.670;12.006;2023-07-31T02:34:44;100013.34;;;26.16;66.06
13013;BME280;22580;57.670;12.006;2023-07-31T02:37:11;100011.50;;;26.28;65.37
13013;BME280;22580;57.670;12.006;2023-07-31T02:39:38;100017.53;;;26.18;65.21
13013;BME280;22580;57.670;12.006;2023-07-31T02:42:05;100015.63;;;26.19;65.60
13013;BME280;22580;57.670;12.006;2023-07-31T02:44:32;99975.63;;;25.81;66.53
13013;BME280;22580;57.670;12.006;2023-07-31T02:46:59;100019.91;;;25.96;67.20
13013;BME280;22580;57.670;12.006;2023-07-31T02:49:26;99983.13;;;25.67;67.12
13013;BME280;22580;57.670;12.006;2023-07-31T02:51:55;100000.41;;;26.04;66.75
13013;BME280;22580;57.670;12.006;2023-07-31T02:54:21;100017.44;;;26.25;66.38
13013;BME280;22580;57.670;12.006;2023-07-31T02:56:49;100009.22;;;26.06;66.55
13013;BME280;22580;57.670;12.006;2023-07-31T02:59:16;100004.75;;;25.94;67.31
13013;BME280;22580;57.670;12.006;2023-07-31T03:01:44;100001.38;;;26.28;66.45
13013;BME280;22580;57.670;12.006;2023-07-31T03:04:10;100009.09;;;26.38;66.35
13013;BME280;22580;57.670;12.006;2023-07-31T03:06:38;99984.41;;;26.56;65.07
13013;BME280;22580;57.670;12.006;2023-07-31T03:09:06;100014.34;;;26.39;66.34
13013;BME280;22580;57.670;12.006;2023-07-31T03:11:33;100014.31;;;26.58;65.56
13013;BME280;22580;57.670;12.006;2023-07-31T03:14:00;100003.13;;;26.59;65.18
13013;BME280;22580;57.670;12.006;2023-07-31T03:16:27;100013.50;;;26.57;65.40
13013;BME280;22580;57.670;12.006;2023-07-31T03:18:54;100005.06;;;26.40;66.01
13013;BME280;22580;57.670;12.006;2023-07-31T03:21:21;100001.53;;;26.52;66.03
13013;BME280;22580;57.670;12.006;2023-07-31T03:23:48;99996.28;;;26.50;65.70
13013;BME280;22580;57.670;12.006;2023-07-31T03:26:17;100005.44;;;26.44;66.22
13013;BME280;22580;57.670;12.006;2023-07-31T03:28:44;100000.25;;;26.54;65.95
13013;BME280;22580;57.670;12.006;2023-07-31T03:31:11;99993.56;;;26.50;65.83
13013;BME280;22580;57.670;12.006;2023-07-31T03:33:39;99993.03;;;26.41;66.29
13013;BME280;22580;57.670;12.006;2023-07-31T03:36:06;99966.63;;;26.10;66.97
13013;BME280;22580;57.670;12.006;2023-07-31T03:38:33;99994.41;;;26.32;66.79
13013;BME280;22580;57.670;12.006;2023-07-31T03:41:00;99961.06;;;26.17;67.01
13013;BME280;22580;57.670;12.006;2023-07-31T03:43:29;99985.34;;;26.32;66.93
13013;BME280;22580;57.670;12.006;2023-07-31T03:45:56;99998.19;;;26.50;66.50
13013;BME280;22580;57.670;12.006;2023-07-31T03:48:23;99995.16;;;26.39;67.02
13013;BME280;22580;57.670;12.006;2023-07-31T03:50:50;99989.94;;;26.68;65.71
13013;BME280;22580;57.670;12.006;2023-07-31T03:53:17;99975.22;;;26.51;65.93
13013;BME280;22580;57.670;12.006;2023-07-31T03:55:45;99986.50;;;26.72;65.58
13013;BME280;22580;57.670;12.006;2023-07-31T03:58:12;99978.41;;;26.77;65.17
13013;BME280;22580;57.670;12.006;2023-07-31T04:00:41;99965.31;;;26.91;64.40
